Time;durP1;ratioP1;P1;durP2;ratioP2;P2;SDS_P1;SDS_P2;PMS_P1;PMS_P2;Temp;Humidity;BMP_temperature;BMP_pressure;BME280_temperature;BME280_humidity;BME280_pressure;Samples;Min_cycle;Max_cycle;Signal;HPM_P1;HPM_P2
2023/04/15 00:02:22;;;;;;;1.17;1.17;;;18.10;65.50;;;;;;5065394;28;43597;-71
2023/04/15 00:04:50;;;;;;;1.13;1.13;;;18.10;65.60;;;;;;5065540;28;43876;-70
2023/04/15 00:07:18;;;;;;;1.10;1.10;;;18.00;65.60;;;;;;5057271;28;44348;-70
2023/04/15 00:09:47;;;;;;;1.23;1.23;;;18.00;65.70;;;;;;5064785;28;43416;-70
2023/04/15 00:12:15;;;;;;;1.50;1.50;;;18.00;65.90;;;;;;5064344;28;43566;-70
2023/04/15 00:14:43;;;;;;;1.33;1.33;;;18.00;65.80;;;;;;5066790;28;44054;-70
2023/04/15 00:17:12;;;;;;;1.20;1.20;;;18.00;65.70;;;;;;5065813;28;43347;-70
2023/04/15 00:19:40;;;;;;;1.20;1.20;;;18.00;65.70;;;;;;5061978;28;43403;-71
2023/04/15 00:22:08;;;;;;;1.70;1.70;;;18.00;65.80;;;;;;5062466;28;43386;-71
2023/04/15 00:24:36;;;;;;;1.37;1.37;;;18.00;65.90;;;;;;5062057;28;43983;-70
2023/04/15 00:27:05;;;;;;;1.73;1.63;;;18.00;66.00;;;;;;5067085;28;43339;-70
2023/04/15 00:29:33;;;;;;;1.40;1.40;;;18.10;65.80;;;;;;5062208;28;43963;-70
2023/04/15 00:32:01;;;;;;;1.47;1.47;;;18.20;65.50;;;;;;5066649;28;43721;-70
2023/04/15 00:34:29;;;;;;;1.53;1.53;;;18.20;65.10;;;;;;5067265;28;46081;-70
2023/04/15 00:36:57;;;;;;;1.40;1.40;;;18.20;65.00;;;;;;5068676;28;43510;-71
2023/04/15 00:39:25;;;;;;;1.47;1.47;;;18.20;65.10;;;;;;5065384;28;43556;-70
2023/04/15 00:41:53;;;;;;;1.40;1.40;;;18.20;65.40;;;;;;5062838;28;43450;-70
2023/04/15 00:44:22;;;;;;;1.40;1.40;;;18.20;65.30;;;;;;5063091;28;43590;-70
2023/04/15 00:46:51;;;;;;;1.60;1.60;;;18.20;65.40;;;;;;5070726;27;44833;-70
2023/04/15 00:49:19;;;;;;;1.27;1.27;;;18.20;65.40;;;;;;5066620;28;43297;-71
2023/04/15 00:51:47;;;;;;;1.50;1.50;;;18.10;65.40;;;;;;5068284;28;43489;-71
2023/04/15 00:54:16;;;;;;;1.40;1.40;;;18.10;65.70;;;;;;5067935;28;44912;-70
2023/04/15 00:56:44;;;;;;;1.50;1.50;;;18.10;65.80;;;;;;5068395;28;43332;-70
2023/04/15 00:59:11;;;;;;;1.50;1.50;;;18.10;65.60;;;;;;5067675;28;43978;-70
2023/04/15 01:01:41;;;;;;;1.40;1.40;;;18.10;65.60;;;;;;5066718;28;44178;-70
2023/04/15 01:04:11;;;;;;;1.50;1.50;;;18.10;65.70;;;;;;5065289;28;43675;-70
2023/04/15 01:06:39;;;;;;;1.60;1.60;;;18.00;65.70;;;;;;5066478;28;44885;-69
2023/04/15 01:09:07;;;;;;;1.60;1.60;;;18.00;65.90;;;;;;5067805;28;44008;-70
2023/04/15 01:11:35;;;;;;;1.40;1.40;;;18.00;65.90;;;;;;5066711;28;43558;-70
2023/04/15 01:14:03;;;;;;;1.40;1.40;;;18.10;65.70;;;;;;5067675;28;43755;-70
2023/04/15 01:16:31;;;;;;;1.37;1.37;;;18.20;65.30;;;;;;5067620;28;43401;-72
2023/04/15 01:19:00;;;;;;;1.30;1.30;;;18.20;65.10;;;;;;5059444;28;43457;-70
2023/04/15 01:21:29;;;;;;;1.87;1.87;;;18.20;65.10;;;;;;5067226;28;43567;-70
2023/04/15 01:23:57;;;;;;;1.30;1.30;;;18.20;65.30;;;;;;5066367;28;45776;-70
2023/04/15 01:26:27;;;;;;;1.67;1.67;;;18.20;65.30;;;;;;5067295;28;43385;-70
2023/04/15 01:28:55;;;;;;;1.30;1.30;;;18.20;65.20;;;;;;5064804;28;43985;-69
2023/04/15 01:31:24;;;;;;;1.63;1.63;;;18.10;65.20;;;;;;5066506;28;43446;-70
2023/04/15 01:33:52;;;;;;;1.30;1.30;;;18.10;65.40;;;;;;5062905;28;43836;-70
2023/04/15 01:36:20;;;;;;;1.50;1.50;;;18.10;65.50;;;;;;5065655;28;45478;-70
2023/04/15 01:38:48;;;;;;;1.63;1.53;;;18.00;65.70;;;;;;5067783;28;43382;-70
2023/04/15 01:41:16;;;;;;;1.70;1.60;;;18.00;65.60;;;;;;5065758;28;43898;-70
2023/04/15 01:43:46;;;;;;;1.40;1.40;;;18.00;65.50;;;;;;5066052;28;44069;-71
2023/04/15 01:46:14;;;;;;;1.53;1.53;;;18.00;65.50;;;;;;5067021;28;43417;-70
2023/04/15 01:48:42;;;;;;;1.53;1.53;;;18.00;65.70;;;;;;5067634;28;43428;-70
2023/04/15 01:51:10;;;;;;;1.80;1.80;;;18.00;66.40;;;;;;5067480;28;43462;-70
2023/04/15 01:53:38;;;;;;;1.27;1.27;;;18.00;66.00;;;;;;5066956;28;44032;-71
2023/04/15 01:56:07;;;;;;;1.43;1.43;;;18.10;65.90;;;;;;5065590;28;43741;-71
2023/04/15 01:58:35;;;;;;;1.30;1.30;;;18.10;65.50;;;;;;5066792;28;43443;-70
2023/04/15 02:01:04;;;;;;;1.30;1.30;;;18.20;65.20;;;;;;5066921;28;43521;-70
2023/04/15 02:03:36;;;;;;;1.50;1.50;;;18.20;65.10;;;;;;5065322;28;45680;-71
2023/04/15 02:06:05;;;;;;;1.50;1.50;;;18.20;65.10;;;;;;5066770;28;43407;-71
2023/04/15 02:08:32;;;;;;;1.50;1.50;;;18.10;65.30;;;;;;5068651;28;44073;-71
2023/04/15 02:11:01;;;;;;;1.40;1.40;;;18.20;65.30;;;;;;5067428;28;43388;-71
2023/04/15 02:13:29;;;;;;;1.43;1.43;;;18.10;65.20;;;;;;5066280;28;45777;-70
2023/04/15 02:15:58;;;;;;;1.40;1.40;;;18.10;65.30;;;;;;5065711;28;44728;-70
2023/04/15 02:18:27;;;;;;;1.37;1.37;;;18.10;65.50;;;;;;5065937;28;43447;-71
2023/04/15 02:20:56;;;;;;;1.50;1.50;;;18.00;65.50;;;;;;5067271;28;43389;-70
2023/04/15 02:23:24;;;;;;;1.33;1.33;;;18.00;65.70;;;;;;5066698;28;43953;-70
2023/04/15 02:25:52;;;;;;;1.50;1.50;;;18.00;65.60;;;;;;5066795;28;43430;-70
2023/04/15 02:28:21;;;;;;;1.27;1.27;;;18.00;65.60;;;;;;5063034;28;43366;-70
2023/04/15 02:30:51;;;;;;;1.40;1.40;;;18.00;65.60;;;;;;5065772;28;43547;-70
2023/04/15 02:33:19;;;;;;;1.50;1.50;;;18.00;65.70;;;;;;5064955;28;44308;-70
2023/04/15 02:35:49;;;;;;;1.63;1.63;;;18.00;65.70;;;;;;5066378;28;43497;-70
2023/04/15 02:38:16;;;;;;;1.50;1.50;;;18.00;65.90;;;;;;5063821;28;43749;-70
2023/04/15 02:40:45;;;;;;;1.53;1.53;;;18.10;65.60;;;;;;5064848;28;43589;-71
2023/04/15 02:43:13;;;;;;;1.47;1.47;;;18.20;65.40;;;;;;5064720;28;45820;-70
2023/04/15 02:45:42;;;;;;;1.40;1.40;;;18.20;65.20;;;;;;5066270;28;43343;-70
2023/04/15 02:48:10;;;;;;;1.30;1.30;;;18.10;65.00;;;;;;5054460;28;43959;-71
2023/04/15 02:50:39;;;;;;;1.30;1.30;;;18.10;65.20;;;;;;5065063;28;44114;-70
2023/04/15 02:53:10;;;;;;;1.40;1.40;;;18.10;65.40;;;;;;5064378;28;43599;-70
2023/04/15 02:55:38;;;;;;;1.47;1.47;;;18.10;65.10;;;;;;5063394;28;44831;-70
2023/04/15 02:58:06;;;;;;;1.40;1.40;;;18.10;65.10;;;;;;5064885;28;43632;-70
2023/04/15 03:00:34;;;;;;;1.43;1.43;;;18.10;65.30;;;;;;5065419;28;43419;-70
2023/04/15 03:03:04;;;;;;;1.67;1.67;;;18.00;65.30;;;;;;5065463;28;44140;-71
2023/04/15 03:05:32;;;;;;;1.50;1.50;;;18.00;65.50;;;;;;5051986;28;44887;-71
2023/04/15 03:08:02;;;;;;;1.60;1.60;;;18.00;65.60;;;;;;5064786;28;43484;-71
2023/04/15 03:10:32;;;;;;;1.70;1.70;;;18.10;65.50;;;;;;5059546;28;44127;-71
2023/04/15 03:13:01;;;;;;;1.50;1.50;;;18.20;65.20;;;;;;5064119;28;46014;-71
2023/04/15 03:15:29;;;;;;;1.80;1.70;;;18.20;64.90;;;;;;5064474;28;45090;-71
2023/04/15 03:17:57;;;;;;;1.97;1.87;;;18.20;64.80;;;;;;5061847;28;43553;-71
2023/04/15 03:20:26;;;;;;;3.13;1.90;;;18.10;64.90;;;;;;5064667;28;43666;-70
2023/04/15 03:22:54;;;;;;;3.07;2.53;;;18.20;65.10;;;;;;5065742;28;43591;-70
2023/04/15 03:25:23;;;;;;;2.60;2.33;;;18.10;65.00;;;;;;5058240;28;43459;-71
2023/04/15 03:27:53;;;;;;;2.10;2.00;;;18.10;64.90;;;;;;5061931;28;43446;-70
2023/04/15 03:30:21;;;;;;;2.27;2.10;;;18.10;65.00;;;;;;5058340;28;43937;-70
2023/04/15 03:32:49;;;;;;;4.70;2.70;;;18.10;65.10;;;;;;5057323;28;44721;-70
2023/04/15 03:35:17;;;;;;;5.50;3.30;;;18.00;65.40;;;;;;5064140;28;43423;-70
2023/04/15 03:37:45;;;;;;;4.27;2.93;;;18.00;65.40;;;;;;5058768;28;43440;-70
2023/04/15 03:40:13;;;;;;;4.60;3.23;;;18.00;65.20;;;;;;5058093;28;43534;-70
2023/04/15 03:42:41;;;;;;;3.80;2.97;;;18.00;65.30;;;;;;5064147;28;44368;-70
2023/04/15 03:45:11;;;;;;;5.13;3.20;;;18.00;65.40;;;;;;5061078;28;43459;-71
2023/04/15 03:47:39;;;;;;;9.27;4.67;;;18.00;65.50;;;;;;5055440;28;43431;-71
2023/04/15 03:50:08;;;;;;;6.80;4.10;;;18.00;65.70;;;;;;5064278;28;44029;-70
2023/04/15 03:52:36;;;;;;;8.97;4.77;;;18.00;65.40;;;;;;5070772;28;43602;-70
2023/04/15 03:55:04;;;;;;;5.57;3.70;;;18.00;65.40;;;;;;5069458;28;44055;-70
2023/04/15 03:57:36;;;;;;;8.87;4.37;;;18.00;65.50;;;;;;5069100;28;43464;-69
2023/04/15 04:00:06;;;;;;;10.73;5.23;;;18.00;65.60;;;;;;5069049;28;43393;-70
2023/04/15 04:02:40;;;;;;;11.50;5.47;;;18.00;65.60;;;;;;5061554;28;43725;-70
2023/04/15 04:05:09;;;;;;;10.13;5.60;;;18.00;65.80;;;;;;5068709;28;43961;-70
2023/04/15 04:07:37;;;;;;;15.43;5.60;;;18.10;65.50;;;;;;5069049;28;43434;-71
2023/04/15 04:10:06;;;;;;;8.87;5.47;;;18.20;65.20;;;;;;5065180;28;43462;-70
2023/04/15 04:12:34;;;;;;;10.13;5.47;;;18.30;64.90;;;;;;5068257;28;43945;-71
2023/04/15 04:15:02;;;;;;;11.03;4.63;;;18.30;64.60;;;;;;5067170;28;45021;-71
2023/04/15 04:17:30;;;;;;;11.07;5.57;;;18.30;64.60;;;;;;5068612;28;44033;-70
2023/04/15 04:20:00;;;;;;;13.37;6.07;;;18.20;64.90;;;;;;5065263;28;43480;-70
2023/04/15 04:22:27;;;;;;;13.40;6.20;;;18.30;65.00;;;;;;5067167;28;45050;-70
2023/04/15 04:24:55;;;;;;;11.80;5.50;;;18.20;64.80;;;;;;5068796;28;43397;-70
2023/04/15 04:27:23;;;;;;;7.17;5.27;;;18.20;64.90;;;;;;5064807;28;43701;-70
2023/04/15 04:29:51;;;;;;;9.57;5.17;;;18.10;65.00;;;;;;5068910;28;43422;-70
2023/04/15 04:32:19;;;;;;;12.03;5.73;;;18.10;65.10;;;;;;5068215;28;43937;-70
2023/04/15 04:34:47;;;;;;;9.73;5.60;;;18.10;65.30;;;;;;5068223;28;43335;-70
2023/04/15 04:37:17;;;;;;;10.93;5.77;;;18.10;65.20;;;;;;5066571;28;43450;-71
2023/04/15 04:39:45;;;;;;;11.23;5.53;;;18.10;65.20;;;;;;5068938;28;43916;-70
2023/04/15 04:42:13;;;;;;;9.83;5.47;;;18.10;65.30;;;;;;5068302;28;43855;-70
2023/04/15 04:44:40;;;;;;;11.37;6.03;;;18.10;65.40;;;;;;5063678;28;43502;-70
2023/04/15 04:47:08;;;;;;;9.97;5.80;;;18.10;65.40;;;;;;5068043;28;43417;-70
2023/04/15 04:49:36;;;;;;;12.00;6.17;;;18.10;65.60;;;;;;5072960;28;43493;-70
2023/04/15 04:52:04;;;;;;;11.10;5.77;;;18.10;65.40;;;;;;5068172;28;43921;-70
2023/04/15 04:54:33;;;;;;;10.60;5.57;;;18.20;65.10;;;;;;5066789;28;44879;-71
2023/04/15 04:57:01;;;;;;;13.43;6.30;;;18.20;64.70;;;;;;5068449;28;43442;-70
2023/04/15 04:59:29;;;;;;;8.70;5.80;;;18.20;64.70;;;;;;5070140;28;43501;-70
2023/04/15 05:01:57;;;;;;;12.03;5.93;;;18.20;64.80;;;;;;5065602;28;46591;-70
2023/04/15 05:04:26;;;;;;;9.17;5.87;;;18.20;65.10;;;;;;5066613;28;44698;-70
2023/04/15 05:06:53;;;;;;;9.33;5.17;;;18.20;64.80;;;;;;5066874;28;43471;-70
2023/04/15 05:09:21;;;;;;;8.17;5.53;;;18.20;64.80;;;;;;5068281;28;43468;-70
2023/04/15 05:11:51;;;;;;;9.73;5.47;;;18.20;65.00;;;;;;5067819;28;43943;-70
2023/04/15 05:14:19;;;;;;;9.23;5.33;;;18.10;65.00;;;;;;5067927;28;43796;-70
2023/04/15 05:16:49;;;;;;;10.40;6.20;;;18.10;65.10;;;;;;5056296;28;43914;-70
2023/04/15 05:19:17;;;;;;;9.40;5.43;;;18.10;65.40;;;;;;5064750;28;43405;-70
2023/04/15 05:21:45;;;;;;;6.40;4.90;;;18.10;65.10;;;;;;5067519;28;43938;-70
2023/04/15 05:24:13;;;;;;;6.47;5.07;;;18.10;65.10;;;;;;5061082;28;44950;-70
2023/04/15 05:26:41;;;;;;;7.77;5.43;;;18.10;65.20;;;;;;5069208;28;43885;-70
2023/04/15 05:29:11;;;;;;;9.80;6.03;;;18.10;65.30;;;;;;5064752;28;43482;-70
2023/04/15 05:31:39;;;;;;;12.23;6.10;;;18.00;65.40;;;;;;5067702;28;43558;-70
2023/04/15 05:34:07;;;;;;;9.73;5.67;;;18.00;65.40;;;;;;5063248;28;43869;-70
2023/04/15 05:36:35;;;;;;;10.57;5.80;;;18.20;65.30;;;;;;5061055;28;44019;-71
2023/04/15 05:39:03;;;;;;;11.53;6.70;;;18.20;64.90;;;;;;5068112;28;43521;-71
2023/04/15 05:41:31;;;;;;;7.63;5.00;;;18.30;64.60;;;;;;5067033;28;43913;-70
2023/04/15 05:43:59;;;;;;;7.33;5.30;;;18.20;64.40;;;;;;5067325;28;43478;-71
2023/04/15 05:46:28;;;;;;;10.63;6.27;;;18.20;64.80;;;;;;5067145;28;43395;-71
2023/04/15 05:48:56;;;;;;;8.43;5.27;;;18.20;64.80;;;;;;5066632;28;43570;-70
2023/04/15 05:51:25;;;;;;;8.53;5.60;;;18.20;64.80;;;;;;5067708;28;43785;-70
2023/04/15 05:53:53;;;;;;;7.07;5.17;;;18.20;64.80;;;;;;5067099;28;43518;-70
2023/04/15 05:56:21;;;;;;;6.10;4.87;;;18.10;64.80;;;;;;5066007;28;43418;-70
2023/04/15 05:58:49;;;;;;;8.60;5.33;;;18.10;65.00;;;;;;5067412;28;43419;-70
2023/04/15 06:01:19;;;;;;;9.13;5.23;;;18.00;65.30;;;;;;5063921;28;45933;-70
2023/04/15 06:03:48;;;;;;;7.63;4.90;;;18.00;65.30;;;;;;5066706;28;43544;-71
2023/04/15 06:06:17;;;;;;;6.73;5.00;;;18.00;65.00;;;;;;5067182;28;43481;-70
2023/04/15 06:08:45;;;;;;;4.83;4.27;;;18.00;65.10;;;;;;5067121;28;43967;-71
2023/04/15 06:11:13;;;;;;;6.67;4.60;;;18.00;65.20;;;;;;5066880;28;43635;-71
2023/04/15 06:13:40;;;;;;;5.70;4.83;;;18.00;65.30;;;;;;5066646;28;43424;-70
2023/04/15 06:16:08;;;;;;;7.40;4.90;;;18.00;65.50;;;;;;5062356;28;43377;-70
2023/04/15 06:18:36;;;;;;;6.97;4.80;;;18.00;65.30;;;;;;5061363;28;43510;-70
2023/04/15 06:21:06;;;;;;;6.67;5.07;;;18.00;65.10;;;;;;5066714;28;43834;-70
2023/04/15 06:23:35;;;;;;;7.57;5.30;;;18.00;65.10;;;;;;5072435;28;44156;-70
2023/04/15 06:26:03;;;;;;;4.97;4.47;;;18.00;65.20;;;;;;5060388;28;43391;-70
2023/04/15 06:28:31;;;;;;;6.50;4.87;;;18.00;65.30;;;;;;5063406;28;43581;-70
2023/04/15 06:30:58;;;;;;;7.67;4.93;;;18.00;65.50;;;;;;5065283;28;45714;-70
2023/04/15 06:33:26;;;;;;;6.13;5.07;;;18.00;65.40;;;;;;5050898;28;43331;-70
2023/04/15 06:35:54;;;;;;;6.17;4.93;;;18.20;65.20;;;;;;5065523;28;43879;-70
2023/04/15 06:38:24;;;;;;;5.47;4.80;;;18.20;64.80;;;;;;5066863;28;43421;-70
2023/04/15 06:40:51;;;;;;;4.83;4.30;;;18.30;64.60;;;;;;5066297;28;43760;-70
2023/04/15 06:43:19;;;;;;;7.67;5.10;;;18.30;64.50;;;;;;5066171;28;43395;-70
2023/04/15 06:45:47;;;;;;;7.13;4.90;;;18.20;64.70;;;;;;5066915;28;43414;-70
2023/04/15 06:48:16;;;;;;;5.07;4.43;;;18.20;64.80;;;;;;5067033;28;43474;-70
2023/04/15 06:50:44;;;;;;;5.80;5.03;;;18.20;64.60;;;;;;5064871;28;46044;-70
2023/04/15 06:53:12;;;;;;;4.33;3.93;;;18.20;64.80;;;;;;5065951;28;43515;-70
2023/04/15 06:55:41;;;;;;;4.43;4.03;;;18.20;64.90;;;;;;5064838;28;43421;-71
2023/04/15 06:58:09;;;;;;;6.30;4.87;;;18.10;65.00;;;;;;5066811;28;43700;-70
2023/04/15 07:00:38;;;;;;;6.60;4.67;;;18.10;65.30;;;;;;5065606;28;43607;-70
2023/04/15 07:03:09;;;;;;;4.70;4.30;;;18.00;65.20;;;;;;5065894;28;44005;-71
2023/04/15 07:05:37;;;;;;;4.90;4.40;;;18.00;65.00;;;;;;5070547;28;43482;-71
2023/04/15 07:08:05;;;;;;;4.57;4.10;;;18.00;65.10;;;;;;5067107;28;43450;-71
2023/04/15 07:10:33;;;;;;;6.97;4.90;;;18.00;65.20;;;;;;5065204;28;43763;-70
2023/04/15 07:13:04;;;;;;;6.73;5.10;;;18.00;65.30;;;;;;5066250;28;43422;-71
2023/04/15 07:15:32;;;;;;;5.60;4.53;;;18.00;65.60;;;;;;5066085;28;43457;-71
2023/04/15 07:18:00;;;;;;;7.37;5.30;;;18.00;65.60;;;;;;5063070;28;44083;-71
2023/04/15 07:20:28;;;;;;;5.77;4.97;;;18.10;65.20;;;;;;5065921;28;43606;-70
2023/04/15 07:22:56;;;;;;;5.30;4.50;;;18.10;65.00;;;;;;5059483;28;43442;-70
2023/04/15 07:25:24;;;;;;;4.83;4.33;;;18.10;64.70;;;;;;5061206;28;43468;-71
2023/04/15 07:27:53;;;;;;;5.10;4.63;;;18.10;64.80;;;;;;5061258;28;43521;-71
2023/04/15 07:30:22;;;;;;;4.93;4.30;;;18.10;65.10;;;;;;5063108;28;46092;-70
2023/04/15 07:32:50;;;;;;;4.60;4.20;;;18.10;65.10;;;;;;5059487;28;44151;-70
2023/04/15 07:35:20;;;;;;;4.17;3.77;;;18.10;64.90;;;;;;5060176;28;43467;-71
2023/04/15 07:37:48;;;;;;;4.10;3.80;;;18.10;65.10;;;;;;5065505;28;43484;-71
2023/04/15 07:40:16;;;;;;;4.70;4.30;;;18.10;65.20;;;;;;5064382;28;45924;-70
2023/04/15 07:42:44;;;;;;;4.63;4.23;;;18.00;65.30;;;;;;5062711;28;45977;-72
2023/04/15 07:45:12;;;;;;;4.43;4.13;;;18.00;65.60;;;;;;5062960;28;44663;-70
2023/04/15 07:47:42;;;;;;;4.70;4.20;;;18.00;65.40;;;;;;5066494;28;43497;-70
2023/04/15 07:50:10;;;;;;;4.83;4.50;;;18.00;65.20;;;;;;5065631;28;43840;-70
2023/04/15 07:52:38;;;;;;;3.97;3.67;;;18.00;65.30;;;;;;5064015;28;45025;-70
2023/04/15 07:55:07;;;;;;;4.73;4.30;;;18.00;65.50;;;;;;5065804;28;43431;-70
2023/04/15 07:57:35;;;;;;;4.13;3.83;;;17.90;65.40;;;;;;5065787;28;43486;-70
2023/04/15 08:00:06;;;;;;;4.47;4.03;;;17.90;65.70;;;;;;5063494;28;46727;-70
2023/04/15 08:02:40;;;;;;;4.73;4.27;;;18.00;65.60;;;;;;5063496;28;43984;-70
2023/04/15 08:05:10;;;;;;;4.10;3.80;;;18.10;65.40;;;;;;5065716;28;43433;-71
2023/04/15 08:07:42;;;;;;;4.20;3.83;;;18.20;65.10;;;;;;5062765;28;43416;-70
2023/04/15 08:10:10;;;;;;;4.73;4.27;;;18.20;64.80;;;;;;5065164;28;44577;-70
2023/04/15 08:12:38;;;;;;;4.47;4.07;;;18.20;64.80;;;;;;5064659;28;44663;-70
2023/04/15 08:15:08;;;;;;;3.70;3.50;;;18.20;65.10;;;;;;5065106;28;43421;-70
2023/04/15 08:17:35;;;;;;;4.53;4.20;;;18.10;65.00;;;;;;5065992;28;44039;-71
2023/04/15 08:20:05;;;;;;;3.60;3.30;;;18.10;64.90;;;;;;5061643;28;43876;-71
2023/04/15 08:22:35;;;;;;;4.43;4.03;;;18.10;65.10;;;;;;5065391;28;43433;-70
2023/04/15 08:25:03;;;;;;;3.83;3.53;;;18.10;65.20;;;;;;5065162;28;43469;-71
2023/04/15 08:27:31;;;;;;;4.10;3.80;;;18.00;65.30;;;;;;5065896;28;43480;-71
2023/04/15 08:29:59;;;;;;;3.63;3.23;;;18.00;65.60;;;;;;5065009;28;45219;-70
2023/04/15 08:32:30;;;;;;;4.03;3.70;;;18.00;65.50;;;;;;5063794;28;44377;-71
2023/04/15 08:34:58;;;;;;;3.10;3.00;;;18.00;65.40;;;;;;5064621;28;43424;-70
2023/04/15 08:37:26;;;;;;;3.90;3.60;;;18.00;65.60;;;;;;5068455;28;43399;-71
2023/04/15 08:39:55;;;;;;;3.80;3.50;;;18.00;65.60;;;;;;5068256;28;43927;-70
2023/04/15 08:42:27;;;;;;;3.50;3.30;;;17.90;65.60;;;;;;5068383;28;43450;-70
2023/04/15 08:44:55;;;;;;;4.30;4.00;;;17.90;65.80;;;;;;5068734;28;43405;-71
2023/04/15 08:47:23;;;;;;;4.17;3.87;;;18.00;65.70;;;;;;5068534;28;43441;-71
2023/04/15 08:49:52;;;;;;;3.53;3.33;;;18.00;65.30;;;;;;5066440;28;43848;-71
2023/04/15 08:52:21;;;;;;;3.13;2.93;;;18.10;65.20;;;;;;5066814;28;44452;-70
2023/04/15 08:54:49;;;;;;;3.47;3.27;;;18.00;65.20;;;;;;5068537;28;43480;-70
2023/04/15 08:57:18;;;;;;;3.33;3.23;;;18.00;65.30;;;;;;5065805;28;43622;-70
2023/04/15 08:59:46;;;;;;;3.33;3.13;;;18.00;65.60;;;;;;5067611;28;43927;-71
2023/04/15 09:02:14;;;;;;;3.37;3.17;;;18.00;65.40;;;;;;5066062;28;45121;-70
2023/04/15 09:04:42;;;;;;;3.50;3.30;;;18.00;65.50;;;;;;5066887;28;43367;-71
2023/04/15 09:07:10;;;;;;;3.33;3.13;;;18.00;65.60;;;;;;5067073;28;43531;-70
2023/04/15 09:09:39;;;;;;;3.60;3.40;;;18.00;65.70;;;;;;5068036;28;43930;-70
2023/04/15 09:12:07;;;;;;;3.13;2.93;;;17.90;65.70;;;;;;5066323;28;44075;-71
2023/04/15 09:14:38;;;;;;;3.77;3.47;;;17.90;65.90;;;;;;5066563;28;43445;-70
2023/04/15 09:17:06;;;;;;;2.87;2.77;;;17.90;65.70;;;;;;5066837;28;44260;-70
2023/04/15 09:19:34;;;;;;;3.47;3.20;;;18.00;65.80;;;;;;5060234;28;43736;-71
2023/04/15 09:22:02;;;;;;;3.57;3.37;;;17.90;65.80;;;;;;5065874;28;45037;-71
2023/04/15 09:24:36;;;;;;;3.30;3.10;;;17.90;65.80;;;;;;5067898;28;43909;-71
2023/04/15 09:27:04;;;;;;;3.17;3.07;;;17.90;66.00;;;;;;5066204;28;43564;-71
2023/04/15 09:29:33;;;;;;;2.80;2.60;;;17.90;66.10;;;;;;5059296;28;43955;-71
2023/04/15 09:32:13;;;;;;;3.20;3.00;;;18.00;65.90;;;;;;5061096;28;43368;-71
2023/04/15 09:34:41;;;;;;;2.77;2.63;;;18.10;65.50;;;;;;5059164;28;43885;-71
2023/04/15 09:37:16;;;;;;;3.10;2.90;;;18.20;65.10;;;;;;5059038;28;43951;-71
2023/04/15 09:40:01;;;;;;;2.70;2.60;;;18.20;65.00;;;;;;5061639;28;43780;-71
2023/04/15 09:42:29;;;;;;;2.93;2.83;;;18.20;65.20;;;;;;5059505;28;43401;-71
2023/04/15 09:45:08;;;;;;;3.07;2.77;;;18.10;65.20;;;;;;5059050;28;43490;-70
2023/04/15 09:47:37;;;;;;;2.90;2.73;;;18.10;65.20;;;;;;5057636;28;43693;-70
2023/04/15 09:50:06;;;;;;;2.80;2.70;;;18.10;65.30;;;;;;5061986;28;43627;-71
2023/04/15 09:52:34;;;;;;;3.23;3.03;;;18.10;65.60;;;;;;5067257;28;43938;-71
2023/04/15 09:55:08;;;;;;;3.30;3.10;;;18.00;65.60;;;;;;5067285;28;43477;-71
2023/04/15 09:57:37;;;;;;;2.70;2.60;;;18.00;65.70;;;;;;5062529;28;43494;-71
2023/04/15 10:00:07;;;;;;;2.60;2.50;;;18.00;65.60;;;;;;5067086;28;43874;-71
2023/04/15 10:02:37;;;;;;;2.60;2.50;;;18.00;65.70;;;;;;5066938;28;43847;-71
2023/04/15 10:05:06;;;;;;;3.17;2.97;;;18.00;65.80;;;;;;5067290;28;43573;-70
2023/04/15 10:07:35;;;;;;;2.80;2.70;;;18.00;65.90;;;;;;5061890;28;43488;-71
2023/04/15 10:10:04;;;;;;;2.90;2.70;;;18.00;66.00;;;;;;5066615;28;43898;-71
2023/04/15 10:12:32;;;;;;;2.67;2.53;;;17.90;66.10;;;;;;5066975;28;43937;-71
2023/04/15 10:15:03;;;;;;;2.57;2.47;;;18.00;66.00;;;;;;5065583;28;43430;-71
2023/04/15 10:17:34;;;;;;;2.87;2.77;;;18.00;65.60;;;;;;5067433;28;43429;-71
2023/04/15 10:20:06;;;;;;;2.60;2.50;;;18.10;65.40;;;;;;5066016;28;43661;-70
2023/04/15 10:22:34;;;;;;;2.80;2.60;;;18.10;65.40;;;;;;5067768;28;43433;-71
2023/04/15 10:25:03;;;;;;;2.07;2.00;;;18.10;65.60;;;;;;5065143;28;43439;-71
2023/04/15 10:27:30;;;;;;;2.33;2.23;;;18.10;65.70;;;;;;5056503;28;43483;-71
2023/04/15 10:29:58;;;;;;;2.70;2.60;;;18.10;65.70;;;;;;5067240;28;43851;-70
2023/04/15 10:32:26;;;;;;;2.60;2.50;;;18.10;65.80;;;;;;5064564;28;43969;-70
2023/04/15 10:34:54;;;;;;;2.40;2.30;;;18.00;65.80;;;;;;5066866;28;43393;-70
2023/04/15 10:37:34;;;;;;;2.17;2.07;;;18.00;65.90;;;;;;5065373;28;43548;-70
2023/04/15 10:40:02;;;;;;;2.57;2.47;;;18.00;66.00;;;;;;5058796;28;43922;-70
2023/04/15 10:42:34;;;;;;;2.50;2.40;;;18.00;66.10;;;;;;5063278;28;44264;-71
2023/04/15 10:45:02;;;;;;;2.40;2.30;;;18.00;65.90;;;;;;5066594;28;43366;-70
2023/04/15 10:47:31;;;;;;;2.40;2.30;;;18.00;65.90;;;;;;5066799;28;43363;-71
2023/04/15 10:50:00;;;;;;;2.60;2.50;;;18.00;65.90;;;;;;5055910;28;45501;-71
2023/04/15 10:52:29;;;;;;;2.23;2.23;;;18.00;65.50;;;;;;5066565;28;43475;-70
2023/04/15 10:55:04;;;;;;;2.00;1.90;;;17.90;65.60;;;;;;5056740;28;44094;-71
2023/04/15 10:57:38;;;;;;;1.70;1.70;;;17.90;65.70;;;;;;5059876;28;43502;-71
2023/04/15 11:00:13;;;;;;;2.20;2.10;;;18.00;65.80;;;;;;5066746;27;45807;-71
2023/04/15 11:02:45;;;;;;;2.37;2.27;;;18.10;65.50;;;;;;5062866;28;43475;-70
2023/04/15 11:05:14;;;;;;;2.20;2.10;;;18.10;63.80;;;;;;5065688;28;43744;-70
2023/04/15 11:07:53;;;;;;;2.30;2.10;;;18.10;63.90;;;;;;5057645;28;43962;-70
2023/04/15 11:10:54;;;;;;;2.10;2.00;;;18.10;64.10;;;;;;5062680;28;46733;-71
2023/04/15 11:13:30;;;;;;;2.60;2.50;;;18.10;64.60;;;;;;5061150;28;44409;-70
2023/04/15 11:16:00;;;;;;;2.07;1.90;;;18.10;63.60;;;;;;5064640;28;43336;-70
2023/04/15 11:18:32;;;;;;;1.90;1.80;;;18.00;63.60;;;;;;5065057;28;43486;-70
2023/04/15 11:21:02;;;;;;;2.30;2.07;;;18.10;63.80;;;;;;5063739;28;43805;-71
2023/04/15 11:23:36;;;;;;;1.80;1.80;;;18.00;64.10;;;;;;5061865;28;45304;-71
2023/04/15 11:26:08;;;;;;;2.10;2.00;;;18.00;64.00;;;;;;5064771;28;43450;-70
2023/04/15 11:28:36;;;;;;;2.10;2.00;;;18.00;64.90;;;;;;5060973;28;43409;-70
2023/04/15 11:31:07;;;;;;;2.07;1.97;;;18.00;63.70;;;;;;5063758;28;43855;-71
2023/04/15 11:33:35;;;;;;;1.83;1.77;;;18.00;63.90;;;;;;5063923;28;45014;-71
2023/04/15 11:36:03;;;;;;;2.17;2.00;;;18.00;63.00;;;;;;5062006;28;43409;-71
2023/04/15 11:38:31;;;;;;;2.00;2.00;;;17.90;63.10;;;;;;5064085;28;43395;-71
2023/04/15 11:41:02;;;;;;;1.97;1.97;;;17.90;63.10;;;;;;5063527;28;43879;-71
2023/04/15 11:43:34;;;;;;;1.93;1.83;;;17.90;64.90;;;;;;5062501;28;43496;-71
2023/04/15 11:46:02;;;;;;;2.07;2.07;;;18.00;64.80;;;;;;5061955;28;43507;-71
2023/04/15 11:48:31;;;;;;;1.90;1.80;;;18.10;64.50;;;;;;5065804;28;43393;-70
2023/04/15 11:51:00;;;;;;;2.70;2.00;;;18.20;64.30;;;;;;5063074;28;43894;-70
2023/04/15 11:53:36;;;;;;;1.90;1.80;;;18.20;63.50;;;;;;5065845;28;43394;-70
2023/04/15 11:56:07;;;;;;;2.10;2.00;;;18.20;63.90;;;;;;5062902;28;43383;-71
2023/04/15 11:58:36;;;;;;;2.03;1.93;;;18.20;64.50;;;;;;5063306;28;43435;-71
2023/04/15 12:01:04;;;;;;;1.53;1.43;;;18.10;64.00;;;;;;5064076;28;43878;-71
2023/04/15 12:03:37;;;;;;;1.97;1.87;;;18.10;64.30;;;;;;5065006;28;44205;-71
2023/04/15 12:06:11;;;;;;;1.67;1.60;;;18.10;64.50;;;;;;5064509;28;43971;-70
2023/04/15 12:08:58;;;;;;;1.80;1.70;;;18.10;64.60;;;;;;5065965;28;43521;-70
2023/04/15 12:11:32;;;;;;;1.97;1.87;;;18.00;64.70;;;;;;5064278;28;43944;-70
2023/04/15 12:14:03;;;;;;;1.77;1.77;;;18.00;64.80;;;;;;5063110;28;43435;-70
2023/04/15 12:16:33;;;;;;;2.10;2.00;;;18.00;64.60;;;;;;5067609;28;43363;-70
2023/04/15 12:19:15;;;;;;;1.80;1.80;;;18.00;64.80;;;;;;5068720;28;43464;-70
2023/04/15 12:21:45;;;;;;;2.00;1.73;;;18.00;64.90;;;;;;5065266;28;43908;-70
2023/04/15 12:24:13;;;;;;;1.67;1.67;;;18.00;65.00;;;;;;5066321;28;45357;-70
2023/04/15 12:26:46;;;;;;;1.73;1.70;;;18.00;65.20;;;;;;5064133;28;43481;-70
2023/04/15 12:29:15;;;;;;;1.80;1.80;;;18.00;64.90;;;;;;5066711;28;44087;-70
2023/04/15 12:31:50;;;;;;;1.83;1.83;;;18.00;65.20;;;;;;5067218;28;45715;-70
2023/04/15 12:34:19;;;;;;;1.67;1.67;;;18.00;65.10;;;;;;5067827;28;43442;-70
2023/04/15 12:36:47;;;;;;;1.57;1.57;;;18.00;65.00;;;;;;5067064;28;43446;-71
2023/04/15 12:39:15;;;;;;;1.70;1.70;;;18.00;65.20;;;;;;5068911;28;43731;-71
2023/04/15 12:41:43;;;;;;;1.70;1.70;;;18.00;65.40;;;;;;5064641;28;43897;-70
2023/04/15 12:44:12;;;;;;;1.50;1.50;;;18.00;65.20;;;;;;5067305;28;43378;-70
2023/04/15 12:46:43;;;;;;;1.40;1.40;;;18.20;65.10;;;;;;5065811;28;43466;-70
2023/04/15 12:49:13;;;;;;;1.57;1.53;;;18.30;64.70;;;;;;5066227;28;43440;-70
2023/04/15 12:51:41;;;;;;;1.50;1.50;;;18.30;64.20;;;;;;5067300;28;43849;-70
2023/04/15 12:54:09;;;;;;;1.40;1.40;;;18.20;64.30;;;;;;5065733;28;45027;-71
2023/04/15 12:56:37;;;;;;;1.50;1.50;;;18.20;64.60;;;;;;5065913;28;43435;-71